createdAt,value
2019-06-20T00:01:12.936Z,77.48
2019-06-20T00:03:42.434Z,77.62
2019-06-20T00:06:11.948Z,77.58
2019-06-20T00:08:41.327Z,77.73
2019-06-20T00:11:10.839Z,77.77
2019-06-20T00:13:40.339Z,77.86
2019-06-20T00:16:09.873Z,77.93
2019-06-20T00:18:40.621Z,77.94
2019-06-20T00:21:10.185Z,77.83
2019-06-20T00:23:39.561Z,78.07
2019-06-20T00:26:09.045Z,78.22
2019-06-20T00:28:38.531Z,78.20
2019-06-20T00:31:07.900Z,78.33
2019-06-20T00:33:37.274Z,78.38
2019-06-20T00:36:06.743Z,78.63
2019-06-20T00:38:36.112Z,78.65
2019-06-20T00:41:05.586Z,78.82
2019-06-20T00:43:34.988Z,78.66
2019-06-20T00:46:04.427Z,78.82
2019-06-20T00:48:33.794Z,78.89
2019-06-20T00:51:03.305Z,78.79
2019-06-20T00:53:32.651Z,79.09
2019-06-20T00:56:02.147Z,79.08
2019-06-20T00:58:31.820Z,79.12
2019-06-20T01:01:01.489Z,79.03
2019-06-20T01:03:31.046Z,79.18
2019-06-20T01:06:00.468Z,79.23
2019-06-20T01:08:32.248Z,79.41
2019-06-20T01:11:01.904Z,79.46
2019-06-20T01:13:33.953Z,79.29
2019-06-20T01:16:02.729Z,79.42
2019-06-20T01:18:32.461Z,79.38
2019-06-20T01:21:02.168Z,79.33
2019-06-20T01:23:31.539Z,79.28
2019-06-20T01:26:01.083Z,79.21
2019-06-20T01:28:30.882Z,79.34
2019-06-20T01:31:00.352Z,79.32
2019-06-20T01:33:29.796Z,79.33
2019-06-20T01:35:59.272Z,79.18
2019-06-20T01:38:28.716Z,79.25
2019-06-20T01:40:58.144Z,79.40
2019-06-20T01:43:27.624Z,79.41
2019-06-20T01:45:57.013Z,79.37
2019-06-20T01:48:26.492Z,79.30
2019-06-20T01:50:55.913Z,79.15
2019-06-20T01:53:25.347Z,79.07
2019-06-20T01:55:54.792Z,79.11
2019-06-20T01:58:24.336Z,79.09
2019-06-20T02:00:54.201Z,79.10
2019-06-20T02:03:23.846Z,78.88
2019-06-20T02:05:53.336Z,78.97
2019-06-20T02:08:22.779Z,78.71
2019-06-20T02:10:52.298Z,78.67
2019-06-20T02:13:21.890Z,78.33
2019-06-20T02:15:51.497Z,78.35
2019-06-20T02:18:21.438Z,78.16
2019-06-20T02:20:53.763Z,78.26
2019-06-20T02:23:23.915Z,78.20
2019-06-20T02:25:53.439Z,78.05
2019-06-20T02:28:23.558Z,77.97
2019-06-20T02:30:53.045Z,78.12
2019-06-20T02:33:22.417Z,77.74
2019-06-20T02:35:51.810Z,77.86
2019-06-20T02:38:21.164Z,77.83
2019-06-20T02:40:50.673Z,77.57
2019-06-20T02:43:20.112Z,77.68
2019-06-20T02:45:49.516Z,77.44
2019-06-20T02:48:18.912Z,77.31
2019-06-20T02:50:48.360Z,77.45
2019-06-20T02:53:17.853Z,77.42
2019-06-20T02:55:47.226Z,76.45
2019-06-20T02:58:16.614Z,75.02
2019-06-20T03:01:03.355Z,73.46
2019-06-20T03:03:32.739Z,72.55
2019-06-20T03:06:02.110Z,70.41
2019-06-20T03:08:31.464Z,68.51
2019-06-20T03:11:01.943Z,67.25
2019-06-20T03:13:31.687Z,65.73
2019-06-20T03:16:01.188Z,65.75
2019-06-20T03:18:30.810Z,64.97
2019-06-20T03:21:01.055Z,65.64
2019-06-20T03:23:30.527Z,66.92
2019-06-20T03:26:00.099Z,67.95
2019-06-20T03:28:29.467Z,68.29
2019-06-20T03:30:59.042Z,67.75
2019-06-20T03:33:28.651Z,66.52
2019-06-20T03:35:58.158Z,64.82
2019-06-20T03:38:27.553Z,63.64
2019-06-20T03:40:57.035Z,64.11
2019-06-20T03:43:26.386Z,63.89
2019-06-20T03:45:55.888Z,62.17
2019-06-20T03:48:25.602Z,61.20
2019-06-20T03:50:55.106Z,60.31
2019-06-20T03:53:24.660Z,60.44
2019-06-20T03:55:54.194Z,59.77
2019-06-20T03:58:23.551Z,59.07
2019-06-20T04:00:55.737Z,59.06
2019-06-20T04:03:25.275Z,58.49
2019-06-20T04:05:54.817Z,58.34
2019-06-20T04:08:24.292Z,58.06
2019-06-20T04:10:53.962Z,58.06
2019-06-20T04:13:23.844Z,59.01
2019-06-20T04:15:53.302Z,59.88
2019-06-20T04:18:23.575Z,60.87
2019-06-20T04:20:53.456Z,61.03
2019-06-20T04:23:23.131Z,61.85
2019-06-20T04:25:52.628Z,61.84
2019-06-20T04:28:22.053Z,62.54
2019-06-20T04:30:51.426Z,63.13
2019-06-20T04:33:20.883Z,63.74
2019-06-20T04:35:50.252Z,64.22
2019-06-20T04:38:19.651Z,64.90
2019-06-20T04:40:49.424Z,65.24
2019-06-20T04:43:18.799Z,65.22
2019-06-20T04:46:03.100Z,65.33
2019-06-20T04:48:32.476Z,64.97
2019-06-20T04:51:01.834Z,64.46
2019-06-20T04:53:31.525Z,64.80
2019-06-20T04:56:00.987Z,64.90
2019-06-20T04:58:30.447Z,65.75
2019-06-20T05:00:59.958Z,65.49
2019-06-20T05:03:29.535Z,65.94
2019-06-20T05:05:59.126Z,65.94
2019-06-20T05:08:28.571Z,64.76
2019-06-20T05:10:58.005Z,65.34
2019-06-20T05:13:27.390Z,65.30
2019-06-20T05:15:56.878Z,65.01
2019-06-20T05:18:26.487Z,64.87
2019-06-20T05:20:56.283Z,65.28
2019-06-20T05:23:25.756Z,65.72
2019-06-20T05:25:55.243Z,64.95
2019-06-20T05:28:24.698Z,65.50
2019-06-20T05:30:54.181Z,65.70
2019-06-20T05:33:23.587Z,65.45
2019-06-20T05:35:53.069Z,65.26
2019-06-20T05:38:22.487Z,65.03
2019-06-20T05:40:51.833Z,65.54
2019-06-20T05:43:21.214Z,65.01
2019-06-20T05:45:50.792Z,64.72
2019-06-20T05:48:20.180Z,64.80
2019-06-20T05:50:49.530Z,64.48
2019-06-20T05:53:19.062Z,63.99
2019-06-20T05:55:48.405Z,63.85
2019-06-20T05:58:17.810Z,63.13
2019-06-20T06:00:47.191Z,62.12
2019-06-20T06:03:16.561Z,62.24
2019-06-20T06:05:47.113Z,61.50
2019-06-20T06:08:17.047Z,61.25
2019-06-20T06:10:47.029Z,59.93
2019-06-20T06:13:16.562Z,59.62
2019-06-20T06:15:45.976Z,59.85
2019-06-20T06:18:15.727Z,59.00
2019-06-20T06:20:45.760Z,58.66
2019-06-20T06:23:15.160Z,58.28
2019-06-20T06:25:44.551Z,58.11
2019-06-20T06:28:13.914Z,58.09
2019-06-20T06:30:43.312Z,58.33
2019-06-20T06:33:12.729Z,59.31
2019-06-20T06:35:45.154Z,59.13
2019-06-20T06:38:14.628Z,60.29
2019-06-20T06:40:44.074Z,60.04
2019-06-20T06:43:13.842Z,60.00
2019-06-20T06:45:43.655Z,60.60
2019-06-20T06:48:13.039Z,59.67
2019-06-20T06:50:42.473Z,59.55
2019-06-20T06:53:14.357Z,59.13
2019-06-20T06:55:43.743Z,59.36
2019-06-20T06:58:13.241Z,58.53
2019-06-20T07:00:42.831Z,58.50
2019-06-20T07:03:13.556Z,57.94
2019-06-20T07:05:42.947Z,57.70
2019-06-20T07:08:12.433Z,57.53
2019-06-20T07:10:41.912Z,58.01
2019-06-20T07:13:11.566Z,57.67
2019-06-20T07:15:43.269Z,57.40
2019-06-20T07:18:12.675Z,57.47
2019-06-20T07:20:42.467Z,57.16
2019-06-20T07:23:12.888Z,56.94
2019-06-20T07:25:42.437Z,57.17
2019-06-20T07:28:11.929Z,57.32
2019-06-20T07:30:41.361Z,57.77
2019-06-20T07:33:11.407Z,57.71
2019-06-20T07:35:41.948Z,58.05
2019-06-20T07:38:11.605Z,58.21
2019-06-20T07:40:41.149Z,58.21
2019-06-20T07:43:11.102Z,57.87
2019-06-20T07:45:41.956Z,57.36
2019-06-20T07:48:11.309Z,58.58
2019-06-20T07:50:40.857Z,58.42
2019-06-20T07:53:14.930Z,58.84
2019-06-20T07:55:44.282Z,58.40
2019-06-20T07:58:13.690Z,58.59
2019-06-20T08:00:43.078Z,58.96
2019-06-20T08:03:26.115Z,59.13
2019-06-20T08:05:55.577Z,59.33
2019-06-20T08:08:25.011Z,59.59
2019-06-20T08:10:54.386Z,58.53
2019-06-20T08:13:24.042Z,58.80
2019-06-20T08:15:53.467Z,58.23
2019-06-20T08:18:30.473Z,57.94
2019-06-20T08:21:00.281Z,58.53
2019-06-20T08:23:30.056Z,57.65
2019-06-20T08:26:00.533Z,57.72
2019-06-20T08:28:32.414Z,58.83
2019-06-20T08:31:02.573Z,56.93
2019-06-20T08:33:32.323Z,57.79
2019-06-20T08:36:02.242Z,57.49
2019-06-20T08:38:31.611Z,58.46
2019-06-20T08:41:02.106Z,56.97
2019-06-20T08:43:31.751Z,56.74
2019-06-20T08:46:01.741Z,56.80
2019-06-20T08:48:31.146Z,55.98
2019-06-20T08:51:00.514Z,56.50
2019-06-20T08:53:30.000Z,55.19
2019-06-20T08:55:59.731Z,55.84
2019-06-20T08:58:30.364Z,54.69
2019-06-20T09:03:31.056Z,54.08
2019-06-20T09:06:00.495Z,53.23
2019-06-20T09:08:29.923Z,53.14
2019-06-20T09:10:59.896Z,52.84
2019-06-20T09:13:29.350Z,52.59
2019-06-20T09:15:58.891Z,52.11
2019-06-20T09:18:28.266Z,52.90
2019-06-20T09:21:02.148Z,52.77
2019-06-20T09:23:32.198Z,52.48
2019-06-20T09:26:02.240Z,51.40
2019-06-20T09:28:31.612Z,49.29
2019-06-20T09:31:01.134Z,48.80
2019-06-20T09:33:30.847Z,49.10
2019-06-20T09:36:00.248Z,49.00
2019-06-20T09:38:29.942Z,46.91
2019-06-20T09:40:59.572Z,46.54
2019-06-20T09:43:29.090Z,46.31
2019-06-20T09:45:58.475Z,45.80
2019-06-20T09:48:28.092Z,46.60
2019-06-20T09:50:58.549Z,45.42
2019-06-20T09:53:28.122Z,45.55
2019-06-20T09:55:58.032Z,45.42
2019-06-20T09:58:27.384Z,46.86
2019-06-20T10:00:57.470Z,47.32
2019-06-20T10:03:27.342Z,47.40
2019-06-20T10:05:57.251Z,49.39
2019-06-20T10:08:26.615Z,50.23
2019-06-20T10:10:56.314Z,50.86
2019-06-20T10:13:25.855Z,52.69
2019-06-20T10:15:58.122Z,52.45
2019-06-20T10:18:27.517Z,52.07
2019-06-20T10:20:57.698Z,51.49
2019-06-20T10:23:27.598Z,51.05
2019-06-20T10:25:58.226Z,50.42
2019-06-20T10:28:28.029Z,49.05
2019-06-20T10:30:57.891Z,49.02
2019-06-20T10:33:27.316Z,49.34
2019-06-20T10:35:57.245Z,48.27
2019-06-20T10:38:26.695Z,49.36
2019-06-20T10:40:59.552Z,49.01
2019-06-20T10:43:27.412Z,49.71
2019-06-20T10:45:56.917Z,50.13
2019-06-20T10:48:26.371Z,49.45
2019-06-20T10:50:57.791Z,49.77
2019-06-20T10:53:27.169Z,49.99
2019-06-20T10:55:56.674Z,49.62
2019-06-20T10:58:26.381Z,49.82
2019-06-20T11:00:55.872Z,49.47
2019-06-20T11:03:25.287Z,48.74
2019-06-20T11:05:54.811Z,48.89
2019-06-20T11:08:24.152Z,48.96
2019-06-20T11:10:53.721Z,48.20
2019-06-20T11:13:23.220Z,47.42
2019-06-20T11:15:52.647Z,47.98
2019-06-20T11:18:22.039Z,48.08
2019-06-20T11:20:51.518Z,48.05
2019-06-20T11:23:21.112Z,46.67
2019-06-20T11:25:51.456Z,46.80
2019-06-20T11:28:20.901Z,46.96
2019-06-20T11:30:58.063Z,46.05
2019-06-20T11:33:21.476Z,46.06
2019-06-20T11:35:50.830Z,46.33
2019-06-20T11:38:20.203Z,46.14
2019-06-20T11:40:49.699Z,46.19
2019-06-20T11:43:19.080Z,47.06
2019-06-20T11:45:48.434Z,47.09
2019-06-20T11:48:17.907Z,47.45
2019-06-20T11:50:47.275Z,48.25
2019-06-20T11:53:16.677Z,48.44
2019-06-20T11:55:46.235Z,49.04
2019-06-20T11:58:15.636Z,49.83
2019-06-20T12:00:58.675Z,50.38
2019-06-20T12:03:16.199Z,50.98
2019-06-20T12:05:47.185Z,51.94
2019-06-20T12:08:16.722Z,52.14
2019-06-20T12:10:47.315Z,52.72
2019-06-20T12:13:16.819Z,53.25
2019-06-20T12:15:46.657Z,54.07
2019-06-20T12:18:16.633Z,55.30
2019-06-20T12:20:46.819Z,55.28
2019-06-20T12:23:16.572Z,54.59
2019-06-20T12:25:46.633Z,54.40
2019-06-20T12:28:16.051Z,53.41
2019-06-20T12:30:46.434Z,52.53
2019-06-20T12:33:16.125Z,50.88
2019-06-20T12:35:46.706Z,50.83
2019-06-20T12:38:16.224Z,49.38
2019-06-20T12:40:46.186Z,49.57
2019-06-20T12:43:15.651Z,47.96
2019-06-20T12:45:45.085Z,48.52
2019-06-20T12:48:15.034Z,47.24
2019-06-20T12:50:45.118Z,45.47
2019-06-20T12:53:14.657Z,44.46
2019-06-20T12:55:45.665Z,44.04
2019-06-20T12:58:15.439Z,44.01
2019-06-20T13:00:46.441Z,44.12
2019-06-20T13:03:16.346Z,44.52
2019-06-20T13:05:47.037Z,45.51
2019-06-20T13:08:16.707Z,46.41
2019-06-20T13:10:46.312Z,47.61
2019-06-20T13:13:15.662Z,49.26
2019-06-20T13:15:45.115Z,51.94
2019-06-20T13:18:14.610Z,52.05
2019-06-20T13:20:44.333Z,53.45
2019-06-20T13:23:13.967Z,52.13
2019-06-20T13:25:44.588Z,52.09
2019-06-20T13:28:14.131Z,51.59
2019-06-20T13:30:47.269Z,51.06
2019-06-20T13:33:16.495Z,51.41
2019-06-20T13:35:46.016Z,51.41
2019-06-20T13:38:15.428Z,51.70
2019-06-20T13:40:45.397Z,52.13
2019-06-20T13:43:14.913Z,52.51
2019-06-20T13:45:44.735Z,52.86
2019-06-20T13:48:14.348Z,53.09
2019-06-20T13:50:43.782Z,52.22
2019-06-20T13:53:13.541Z,51.63
2019-06-20T13:55:44.084Z,50.16
2019-06-20T13:58:13.847Z,49.61
2019-06-20T14:00:45.377Z,50.91
2019-06-20T14:03:15.007Z,49.87
2019-06-20T14:05:45.369Z,50.08
2019-06-20T14:08:14.974Z,50.05
2019-06-20T14:10:45.984Z,51.54
2019-06-20T14:13:19.592Z,52.54
2019-06-20T14:15:46.717Z,52.43
2019-06-20T14:18:16.827Z,52.06
2019-06-20T14:20:46.701Z,52.89
2019-06-20T14:23:16.398Z,53.01
2019-06-20T14:25:46.343Z,53.17
2019-06-20T14:28:15.839Z,53.17
2019-06-20T14:30:46.546Z,52.82
2019-06-20T14:33:16.452Z,51.47
2019-06-20T14:35:47.400Z,51.80
2019-06-20T14:38:17.068Z,49.87
2019-06-20T14:40:48.244Z,51.44
2019-06-20T14:43:17.709Z,51.84
2019-06-20T14:45:48.598Z,51.91
2019-06-20T14:48:18.310Z,51.38
2019-06-20T14:50:48.303Z,51.59
2019-06-20T14:53:19.127Z,51.60
2019-06-20T14:55:49.728Z,49.44
2019-06-20T14:58:19.208Z,50.42
2019-06-20T15:00:49.780Z,50.75
2019-06-20T15:03:19.449Z,51.75
2019-06-20T15:05:50.062Z,50.38
2019-06-20T15:08:19.790Z,49.53
2019-06-20T15:10:50.281Z,49.71
2019-06-20T15:13:19.885Z,49.14
2019-06-20T15:15:49.626Z,49.79
2019-06-20T15:18:19.357Z,49.05
2019-06-20T15:20:50.228Z,49.89
2019-06-20T15:23:19.823Z,49.68
2019-06-20T15:25:50.406Z,49.65
2019-06-20T15:28:21.121Z,49.90
2019-06-20T15:30:50.832Z,49.48
2019-06-20T15:33:34.291Z,49.92
2019-06-20T15:36:03.829Z,48.46
2019-06-20T15:38:33.262Z,49.05
2019-06-20T15:41:02.656Z,46.67
2019-06-20T15:43:32.102Z,46.32
2019-06-20T15:46:01.613Z,43.65
2019-06-20T15:48:31.134Z,44.35
2019-06-20T15:51:00.600Z,45.86
2019-06-20T15:53:30.184Z,46.72
2019-06-20T15:55:59.648Z,48.15
2019-06-20T15:58:29.242Z,49.36
2019-06-20T16:00:58.761Z,48.32
2019-06-20T16:03:28.161Z,48.59
2019-06-20T16:05:57.745Z,48.83
2019-06-20T16:08:27.222Z,49.27
2019-06-20T16:10:56.787Z,50.01
2019-06-20T16:13:26.565Z,50.24
2019-06-20T16:15:56.035Z,51.12
2019-06-20T16:18:25.433Z,52.17
2019-06-20T16:20:54.977Z,53.55
2019-06-20T16:23:24.667Z,54.06
2019-06-20T16:25:55.414Z,54.56
2019-06-20T16:28:25.572Z,54.91
2019-06-20T16:31:07.914Z,54.79
2019-06-20T16:33:26.347Z,53.47
2019-06-20T16:35:56.007Z,50.63
2019-06-20T16:38:25.403Z,48.63
2019-06-20T16:40:54.990Z,46.94
2019-06-20T16:43:24.474Z,45.89
2019-06-20T16:45:53.960Z,45.04
2019-06-20T16:48:25.029Z,45.91
2019-06-20T16:50:54.896Z,47.60
2019-06-20T16:53:24.398Z,49.04
2019-06-20T16:55:55.809Z,50.28
2019-06-20T16:58:25.338Z,51.45
2019-06-20T17:00:54.821Z,52.81
2019-06-20T17:03:40.475Z,53.37
2019-06-20T17:05:55.590Z,52.54
2019-06-20T17:08:25.147Z,50.70
2019-06-20T17:10:55.992Z,48.85
2019-06-20T17:13:25.715Z,46.85
2019-06-20T17:15:55.235Z,45.70
2019-06-20T17:18:24.777Z,46.60
2019-06-20T17:20:54.248Z,45.33
2019-06-20T17:23:23.703Z,46.37
2019-06-20T17:25:53.715Z,47.59
2019-06-20T17:28:23.376Z,46.69
2019-06-20T17:30:52.928Z,45.68
2019-06-20T17:33:22.345Z,44.91
2019-06-20T17:35:51.862Z,45.26
2019-06-20T17:38:21.286Z,45.09
2019-06-20T17:40:50.665Z,44.28
2019-06-20T17:43:20.167Z,44.22
2019-06-20T17:45:49.845Z,43.57
2019-06-20T17:48:19.255Z,44.11
2019-06-20T17:50:49.078Z,44.59
2019-06-20T17:53:18.603Z,45.19
2019-06-20T17:55:48.102Z,45.61
2019-06-20T17:58:17.545Z,47.04
2019-06-20T18:00:48.759Z,47.55
2019-06-20T18:03:18.138Z,48.87
2019-06-20T18:05:47.714Z,49.22
2019-06-20T18:08:17.128Z,49.08
2019-06-20T18:10:46.710Z,49.44
2019-06-20T18:13:16.593Z,50.67
2019-06-20T18:15:45.982Z,50.34
2019-06-20T18:18:15.563Z,50.57
2019-06-20T18:20:45.080Z,49.17
2019-06-20T18:23:15.815Z,48.33
2019-06-20T18:25:45.449Z,47.70
2019-06-20T18:28:15.756Z,47.05
2019-06-20T18:30:45.963Z,46.44
2019-06-20T18:33:15.646Z,46.24
2019-06-20T18:35:45.117Z,46.41
2019-06-20T18:38:14.569Z,45.93
2019-06-20T18:40:43.949Z,46.18
2019-06-20T18:43:13.449Z,46.32
2019-06-20T18:45:42.800Z,47.73
2019-06-20T18:48:12.249Z,49.46
2019-06-20T18:50:42.009Z,51.26
2019-06-20T18:53:11.785Z,52.81
2019-06-20T18:55:41.208Z,54.01
2019-06-20T18:58:10.810Z,55.61
2019-06-20T19:00:40.185Z,56.69
2019-06-20T19:03:09.679Z,58.36
2019-06-20T19:05:39.110Z,59.50
2019-06-20T19:08:08.504Z,60.54
2019-06-20T19:10:37.864Z,61.46
2019-06-20T19:13:09.348Z,62.03
2019-06-20T19:15:39.068Z,62.63
2019-06-20T19:18:08.444Z,62.94
2019-06-20T19:20:37.899Z,63.50
2019-06-20T19:23:07.267Z,63.74
2019-06-20T19:25:36.630Z,64.30
2019-06-20T19:28:06.227Z,64.63
2019-06-20T19:30:45.610Z,64.69
2019-06-20T19:33:15.314Z,65.18
2019-06-20T19:35:44.800Z,65.79
2019-06-20T19:38:14.163Z,66.10
2019-06-20T19:40:47.985Z,66.41
2019-06-20T19:43:17.351Z,66.71
2019-06-20T19:45:46.977Z,67.16
2019-06-20T19:48:16.901Z,67.44
2019-06-20T19:50:46.455Z,67.10
2019-06-20T19:53:15.969Z,67.54
2019-06-20T19:55:45.385Z,67.80
2019-06-20T19:58:14.748Z,67.91
2019-06-20T20:00:44.641Z,68.01
2019-06-20T20:03:14.354Z,67.93
2019-06-20T20:05:44.374Z,68.03
2019-06-20T20:08:13.721Z,67.76
2019-06-20T20:10:47.142Z,68.06
2019-06-20T20:13:16.939Z,68.04
2019-06-20T20:15:47.110Z,68.13
2019-06-20T20:18:17.534Z,68.39
2019-06-20T20:20:48.003Z,68.49
2019-06-20T20:23:17.440Z,68.65
2019-06-20T20:25:46.956Z,68.83
2019-06-20T20:28:16.515Z,69.02
2019-06-20T20:30:45.934Z,69.29
2019-06-20T20:33:15.341Z,69.52
2019-06-20T20:35:44.737Z,69.89
2019-06-20T20:38:14.122Z,70.24
2019-06-20T20:40:43.623Z,70.04
2019-06-20T20:43:12.980Z,70.45
2019-06-20T20:45:42.604Z,70.68
2019-06-20T20:48:14.436Z,70.71
2019-06-20T20:50:43.952Z,70.49
2019-06-20T20:53:13.313Z,70.86
2019-06-20T20:55:42.833Z,70.71
2019-06-20T20:58:12.386Z,70.87
2019-06-20T21:00:54.778Z,71.61
2019-06-20T21:03:24.198Z,72.23
2019-06-20T21:05:53.730Z,72.03
2019-06-20T21:08:23.151Z,72.59
2019-06-20T21:10:52.509Z,72.41
2019-06-20T21:13:21.921Z,72.82
2019-06-20T21:15:51.727Z,72.99
2019-06-20T21:18:21.107Z,73.77
2019-06-20T21:20:51.353Z,74.16
2019-06-20T21:23:20.751Z,74.53
2019-06-20T21:25:50.153Z,74.31
2019-06-20T21:28:19.749Z,74.50
2019-06-20T21:30:49.215Z,74.79
2019-06-20T21:33:18.602Z,74.71
2019-06-20T21:35:47.972Z,74.62
2019-06-20T21:38:17.485Z,75.10
2019-06-20T21:40:46.934Z,75.28
2019-06-20T21:43:16.317Z,75.28
2019-06-20T21:45:46.231Z,75.50
2019-06-20T21:48:15.633Z,75.21
2019-06-20T21:50:45.102Z,75.09
2019-06-20T21:53:14.587Z,74.81
2019-06-20T21:55:44.010Z,75.12
2019-06-20T21:58:13.412Z,75.41
2019-06-20T22:00:46.518Z,75.47
2019-06-20T22:03:16.353Z,75.92
2019-06-20T22:05:45.915Z,76.11
2019-06-20T22:08:15.438Z,76.36
2019-06-20T22:10:44.832Z,76.28
2019-06-20T22:13:14.272Z,76.21
2019-06-20T22:15:43.667Z,76.44
2019-06-20T22:18:13.158Z,76.14
2019-06-20T22:20:42.536Z,76.63
2019-06-20T22:23:12.556Z,76.87
2019-06-20T22:25:42.223Z,76.71
2019-06-20T22:28:12.014Z,76.56
2019-06-20T22:30:48.892Z,76.53
2019-06-20T22:33:18.265Z,76.29
2019-06-20T22:35:47.618Z,76.33
2019-06-20T22:38:17.879Z,76.43
2019-06-20T22:40:47.351Z,76.21
2019-06-20T22:43:16.808Z,76.30
2019-06-20T22:45:46.243Z,76.32
2019-06-20T22:48:18.323Z,76.38
2019-06-20T22:50:47.668Z,76.67
2019-06-20T22:53:17.075Z,76.77
2019-06-20T22:55:46.545Z,76.99
2019-06-20T22:58:15.928Z,77.11
2019-06-20T23:00:45.659Z,77.28
2019-06-20T23:03:15.138Z,77.45
2019-06-20T23:05:44.501Z,77.47
2019-06-20T23:08:14.039Z,77.50
2019-06-20T23:10:43.395Z,77.59
2019-06-20T23:13:12.785Z,77.62
2019-06-20T23:15:42.327Z,77.59
2019-06-20T23:18:11.765Z,77.57
2019-06-20T23:21:00.693Z,77.44
2019-06-20T23:23:15.312Z,77.43
2019-06-20T23:25:47.699Z,77.54
2019-06-20T23:28:17.063Z,77.42
2019-06-20T23:30:46.513Z,77.41
2019-06-20T23:33:16.026Z,77.39
2019-06-20T23:35:45.758Z,77.34
2019-06-20T23:38:15.150Z,77.17
2019-06-20T23:40:44.526Z,77.62
2019-06-20T23:43:13.887Z,78.01
2019-06-20T23:45:43.315Z,78.12
2019-06-20T23:48:12.703Z,78.19
2019-06-20T23:50:42.263Z,78.38
2019-06-20T23:53:30.190Z,78.26
2019-06-20T23:55:59.754Z,78.14
2019-06-20T23:58:29.164Z,77.80
